sensor_id;sensor_type;location;lat;lon;timestamp;pressure;altitude;pressure_sealevel;temperature;humidity
34241;BME280;20503;50.200;19.508;2023-10-19T00:01:00;100555.32;;;7.55;56.20
34241;BME280;20503;50.200;19.508;2023-10-19T00:02:07;100554.98;;;7.59;56.66
34241;BME280;20503;50.200;19.508;2023-10-19T00:03:24;100547.61;;;7.50;56.26
34241;BME280;20503;50.200;19.508;2023-10-19T00:04:28;100542.73;;;7.31;56.16
34241;BME280;20503;50.200;19.508;2023-10-19T00:05:38;100542.27;;;7.13;57.28
34241;BME280;20503;50.200;19.508;2023-10-19T00:06:44;100548.76;;;6.98;57.36
34241;BME280;20503;50.200;19.508;2023-10-19T00:07:50;100551.81;;;6.81;57.95
34241;BME280;20503;50.200;19.508;2023-10-19T00:08:59;100537.74;;;6.77;58.54
34241;BME280;20503;50.200;19.508;2023-10-19T00:10:01;100548.66;;;7.00;57.22
34241;BME280;20503;50.200;19.508;2023-10-19T00:11:07;100555.14;;;6.84;57.70
34241;BME280;20503;50.200;19.508;2023-10-19T00:12:25;100551.65;;;7.08;58.05
34241;BME280;20503;50.200;19.508;2023-10-19T00:13:30;100553.53;;;7.18;56.62
34241;BME280;20503;50.200;19.508;2023-10-19T00:14:32;100546.88;;;7.11;55.73
34241;BME280;20503;50.200;19.508;2023-10-19T00:15:37;100557.02;;;7.08;57.09
34241;BME280;20503;50.200;19.508;2023-10-19T00:16:47;100543.93;;;6.90;57.83
34241;BME280;20503;50.200;19.508;2023-10-19T00:17:59;100554.16;;;6.85;57.27
34241;BME280;20503;50.200;19.508;2023-10-19T00:19:13;100541.28;;;6.78;59.39
34241;BME280;20503;50.200;19.508;2023-10-19T00:20:23;100542.26;;;6.77;57.93
34241;BME280;20503;50.200;19.508;2023-10-19T00:21:39;100537.71;;;6.90;57.27
34241;BME280;20503;50.200;19.508;2023-10-19T00:22:53;100539.75;;;6.86;58.53
34241;BME280;20503;50.200;19.508;2023-10-19T00:23:58;100540.30;;;6.91;57.74
34241;BME280;20503;50.200;19.508;2023-10-19T00:25:08;100542.01;;;6.92;57.99
34241;BME280;20503;50.200;19.508;2023-10-19T00:26:14;100545.59;;;6.80;57.64
34241;BME280;20503;50.200;19.508;2023-10-19T00:27:21;100537.55;;;6.67;58.92
34241;BME280;20503;50.200;19.508;2023-10-19T00:28:26;100533.25;;;6.65;58.77
34241;BME280;20503;50.200;19.508;2023-10-19T00:29:29;100536.91;;;6.64;60.22
34241;BME280;20503;50.200;19.508;2023-10-19T00:30:41;100533.25;;;6.65;59.43
34241;BME280;20503;50.200;19.508;2023-10-19T00:31:45;100540.64;;;6.74;59.37
34241;BME280;20503;50.200;19.508;2023-10-19T00:32:47;100533.80;;;6.57;59.14
34241;BME280;20503;50.200;19.508;2023-10-19T00:33:50;100534.64;;;6.58;61.08
34241;BME280;20503;50.200;19.508;2023-10-19T00:35:00;100532.79;;;6.71;59.35
34241;BME280;20503;50.200;19.508;2023-10-19T00:36:13;100523.37;;;6.65;59.58
34241;BME280;20503;50.200;19.508;2023-10-19T00:37:41;100526.80;;;6.55;59.58
34241;BME280;20503;50.200;19.508;2023-10-19T00:38:59;100526.05;;;6.65;59.29
34241;BME280;20503;50.200;19.508;2023-10-19T00:40:12;100517.05;;;6.54;59.41
34241;BME280;20503;50.200;19.508;2023-10-19T00:41:24;100514.77;;;6.73;59.09
34241;BME280;20503;50.200;19.508;2023-10-19T00:42:32;100505.64;;;6.76;58.96
34241;BME280;20503;50.200;19.508;2023-10-19T00:43:44;100502.80;;;6.90;58.66
34241;BME280;20503;50.200;19.508;2023-10-19T00:44:49;100507.19;;;6.91;58.54
34241;BME280;20503;50.200;19.508;2023-10-19T00:45:52;100501.64;;;6.81;58.78
34241;BME280;20503;50.200;19.508;2023-10-19T00:46:56;100503.22;;;6.97;57.90
34241;BME280;20503;50.200;19.508;2023-10-19T00:48:10;100501.17;;;7.00;58.38
34241;BME280;20503;50.200;19.508;2023-10-19T00:49:14;100497.50;;;7.01;57.13
34241;BME280;20503;50.200;19.508;2023-10-19T00:50:17;100493.28;;;6.73;57.09
34241;BME280;20503;50.200;19.508;2023-10-19T00:51:31;100493.96;;;6.64;58.18
34241;BME280;20503;50.200;19.508;2023-10-19T00:52:48;100488.65;;;6.75;58.21
34241;BME280;20503;50.200;19.508;2023-10-19T00:54:02;100486.59;;;6.79;56.85
34241;BME280;20503;50.200;19.508;2023-10-19T00:55:14;100486.84;;;6.76;58.08
34241;BME280;20503;50.200;19.508;2023-10-19T00:56:21;100478.61;;;6.53;58.82
34241;BME280;20503;50.200;19.508;2023-10-19T00:57:25;100482.61;;;6.48;59.54
34241;BME280;20503;50.200;19.508;2023-10-19T00:58:39;100479.72;;;6.25;60.10
34241;BME280;20503;50.200;19.508;2023-10-19T00:59:43;100479.61;;;6.39;59.98
34241;BME280;20503;50.200;19.508;2023-10-19T01:00:55;100479.29;;;6.31;60.46
34241;BME280;20503;50.200;19.508;2023-10-19T01:01:57;100475.73;;;6.31;60.75
34241;BME280;20503;50.200;19.508;2023-10-19T01:03:11;100475.00;;;6.78;58.86
34241;BME280;20503;50.200;19.508;2023-10-19T01:04:21;100474.19;;;7.02;57.30
34241;BME280;20503;50.200;19.508;2023-10-19T01:05:28;100468.46;;;7.06;56.44
34241;BME280;20503;50.200;19.508;2023-10-19T01:06:37;100465.44;;;7.11;56.93
34241;BME280;20503;50.200;19.508;2023-10-19T01:07:46;100475.10;;;7.13;56.63
34241;BME280;20503;50.200;19.508;2023-10-19T01:08:55;100466.54;;;7.08;55.80
34241;BME280;20503;50.200;19.508;2023-10-19T01:10:02;100461.09;;;6.97;55.48
34241;BME280;20503;50.200;19.508;2023-10-19T01:11:14;100453.43;;;6.80;56.69
34241;BME280;20503;50.200;19.508;2023-10-19T01:12:23;100465.00;;;6.43;57.68
34241;BME280;20503;50.200;19.508;2023-10-19T01:13:40;100452.78;;;6.39;57.82
34241;BME280;20503;50.200;19.508;2023-10-19T01:16:02;100449.12;;;6.15;59.90
34241;BME280;20503;50.200;19.508;2023-10-19T01:17:05;100451.27;;;6.23;59.45
34241;BME280;20503;50.200;19.508;2023-10-19T01:18:07;100449.97;;;6.41;58.47
34241;BME280;20503;50.200;19.508;2023-10-19T01:19:16;100458.77;;;6.30;58.21
34241;BME280;20503;50.200;19.508;2023-10-19T01:21:40;100438.32;;;6.04;61.53
34241;BME280;20503;50.200;19.508;2023-10-19T01:22:52;100441.51;;;6.22;61.88
34241;BME280;20503;50.200;19.508;2023-10-19T01:23:55;100443.63;;;6.42;60.69
34241;BME280;20503;50.200;19.508;2023-10-19T01:25:04;100441.67;;;6.57;58.82
34241;BME280;20503;50.200;19.508;2023-10-19T01:26:13;100438.02;;;6.58;58.27
34241;BME280;20503;50.200;19.508;2023-10-19T01:27:24;100444.99;;;6.60;58.30
34241;BME280;20503;50.200;19.508;2023-10-19T01:28:35;100440.32;;;6.26;58.98
34241;BME280;20503;50.200;19.508;2023-10-19T01:29:49;100435.10;;;6.11;59.64
34241;BME280;20503;50.200;19.508;2023-10-19T01:30:54;100437.47;;;6.03;59.79
34241;BME280;20503;50.200;19.508;2023-10-19T01:31:58;100434.96;;;6.26;59.38
34241;BME280;20503;50.200;19.508;2023-10-19T01:33:13;100436.16;;;6.09;59.18
34241;BME280;20503;50.200;19.508;2023-10-19T01:34:17;100437.15;;;5.95;59.08
34241;BME280;20503;50.200;19.508;2023-10-19T01:35:23;100437.52;;;5.76;59.94
34241;BME280;20503;50.200;19.508;2023-10-19T01:36:26;100432.29;;;5.87;59.56
34241;BME280;20503;50.200;19.508;2023-10-19T01:37:30;100432.84;;;5.92;59.18
34241;BME280;20503;50.200;19.508;2023-10-19T01:38:40;100432.29;;;5.87;59.07
34241;BME280;20503;50.200;19.508;2023-10-19T01:39:42;100427.03;;;5.99;58.95
34241;BME280;20503;50.200;19.508;2023-10-19T01:40:48;100423.59;;;5.84;59.42
34241;BME280;20503;50.200;19.508;2023-10-19T01:41:52;100426.36;;;5.69;60.19
34241;BME280;20503;50.200;19.508;2023-10-19T01:42:57;100422.74;;;5.83;59.94
34241;BME280;20503;50.200;19.508;2023-10-19T01:44:01;100417.20;;;5.99;59.85
34241;BME280;20503;50.200;19.508;2023-10-19T01:45:15;100427.47;;;6.05;60.14
34241;BME280;20503;50.200;19.508;2023-10-19T01:46:21;100419.69;;;5.50;62.19
34241;BME280;20503;50.200;19.508;2023-10-19T01:47:30;100416.61;;;5.56;62.81
34241;BME280;20503;50.200;19.508;2023-10-19T01:48:35;100416.14;;;5.36;64.10
34241;BME280;20503;50.200;19.508;2023-10-19T01:49:38;100412.18;;;5.55;65.09
34241;BME280;20503;50.200;19.508;2023-10-19T01:50:42;100402.66;;;5.89;62.82
34241;BME280;20503;50.200;19.508;2023-10-19T01:51:46;100406.43;;;6.25;62.94
34241;BME280;20503;50.200;19.508;2023-10-19T01:52:50;100402.09;;;6.48;62.22
34241;BME280;20503;50.200;19.508;2023-10-19T01:53:56;100399.66;;;6.68;60.81
34241;BME280;20503;50.200;19.508;2023-10-19T01:55:03;100392.75;;;7.01;59.69
34241;BME280;20503;50.200;19.508;2023-10-19T01:56:27;100390.53;;;7.30;59.28
34241;BME280;20503;50.200;19.508;2023-10-19T01:57:33;100390.02;;;7.60;56.74
34241;BME280;20503;50.200;19.508;2023-10-19T01:58:37;100391.76;;;7.73;55.19
34241;BME280;20503;50.200;19.508;2023-10-19T01:59:41;100385.13;;;7.65;54.66
34241;BME280;20503;50.200;19.508;2023-10-19T02:00:47;100380.45;;;7.10;54.18
34241;BME280;20503;50.200;19.508;2023-10-19T02:01:49;100397.34;;;6.51;56.55
34241;BME280;20503;50.200;19.508;2023-10-19T02:02:53;100385.59;;;6.65;56.97
34241;BME280;20503;50.200;19.508;2023-10-19T02:04:01;100389.40;;;6.50;56.30
34241;BME280;20503;50.200;19.508;2023-10-19T02:05:07;100388.38;;;6.39;56.59
34241;BME280;20503;50.200;19.508;2023-10-19T02:06:27;100401.24;;;6.34;57.44
34241;BME280;20503;50.200;19.508;2023-10-19T02:08:01;100394.87;;;6.11;58.03
34241;BME280;20503;50.200;19.508;2023-10-19T02:09:11;100382.52;;;6.09;58.99
34241;BME280;20503;50.200;19.508;2023-10-19T02:10:27;100383.59;;;6.06;59.63
34241;BME280;20503;50.200;19.508;2023-10-19T02:11:31;100379.51;;;6.13;60.57
34241;BME280;20503;50.200;19.508;2023-10-19T02:12:56;100391.87;;;6.03;61.68
34241;BME280;20503;50.200;19.508;2023-10-19T02:14:01;100377.25;;;6.20;61.23
34241;BME280;20503;50.200;19.508;2023-10-19T02:15:10;100372.01;;;6.55;58.51
34241;BME280;20503;50.200;19.508;2023-10-19T02:16:24;100369.00;;;6.47;59.23
34241;BME280;20503;50.200;19.508;2023-10-19T02:17:35;100364.52;;;6.48;61.65
34241;BME280;20503;50.200;19.508;2023-10-19T02:18:41;100375.55;;;6.80;58.66
34241;BME280;20503;50.200;19.508;2023-10-19T02:19:46;100372.17;;;6.65;57.24
34241;BME280;20503;50.200;19.508;2023-10-19T02:20:49;100367.80;;;6.27;57.94
34241;BME280;20503;50.200;19.508;2023-10-19T02:21:56;100367.62;;;5.79;58.66
34241;BME280;20503;50.200;19.508;2023-10-19T02:22:59;100369.23;;;5.94;58.77
34241;BME280;20503;50.200;19.508;2023-10-19T02:24:23;100378.65;;;6.13;58.04
34241;BME280;20503;50.200;19.508;2023-10-19T02:25:24;100364.59;;;6.09;58.06
34241;BME280;20503;50.200;19.508;2023-10-19T02:26:31;100367.37;;;6.21;57.43
34241;BME280;20503;50.200;19.508;2023-10-19T02:27:35;100360.61;;;6.15;57.39
34241;BME280;20503;50.200;19.508;2023-10-19T02:28:38;100360.00;;;6.11;58.13
34241;BME280;20503;50.200;19.508;2023-10-19T02:29:43;100359.11;;;6.24;58.14
34241;BME280;20503;50.200;19.508;2023-10-19T02:30:48;100356.98;;;6.16;57.71
34241;BME280;20503;50.200;19.508;2023-10-19T02:31:52;100358.59;;;6.06;58.21
34241;BME280;20503;50.200;19.508;2023-10-19T02:33:03;100347.98;;;5.91;60.61
34241;BME280;20503;50.200;19.508;2023-10-19T02:34:10;100351.83;;;6.13;58.78
34241;BME280;20503;50.200;19.508;2023-10-19T02:35:14;100350.46;;;5.56;59.65
34241;BME280;20503;50.200;19.508;2023-10-19T02:36:17;100346.70;;;5.84;62.63
34241;BME280;20503;50.200;19.508;2023-10-19T02:37:21;100347.70;;;6.33;59.04
34241;BME280;20503;50.200;19.508;2023-10-19T02:38:24;100342.67;;;6.28;57.72
34241;BME280;20503;50.200;19.508;2023-10-19T02:39:27;100342.63;;;6.41;58.43
34241;BME280;20503;50.200;19.508;2023-10-19T02:40:34;100342.75;;;6.39;59.29
34241;BME280;20503;50.200;19.508;2023-10-19T02:41:45;100342.36;;;6.57;59.96
34241;BME280;20503;50.200;19.508;2023-10-19T02:42:52;100335.15;;;6.57;56.26
34241;BME280;20503;50.200;19.508;2023-10-19T02:43:55;100333.52;;;6.67;57.08
34241;BME280;20503;50.200;19.508;2023-10-19T02:45:17;100333.73;;;6.64;59.08
34241;BME280;20503;50.200;19.508;2023-10-19T02:46:22;100323.96;;;6.87;58.87
34241;BME280;20503;50.200;19.508;2023-10-19T02:47:27;100320.27;;;7.12;55.89
34241;BME280;20503;50.200;19.508;2023-10-19T02:48:32;100316.59;;;7.13;55.15
34241;BME280;20503;50.200;19.508;2023-10-19T02:49:36;100320.87;;;6.33;56.40
34241;BME280;20503;50.200;19.508;2023-10-19T02:50:42;100316.23;;;6.35;55.91
34241;BME280;20503;50.200;19.508;2023-10-19T02:51:45;100317.38;;;6.20;56.17
34241;BME280;20503;50.200;19.508;2023-10-19T02:52:48;100311.71;;;6.11;56.07
34241;BME280;20503;50.200;19.508;2023-10-19T02:54:15;100316.87;;;6.02;56.71
34241;BME280;20503;50.200;19.508;2023-10-19T02:55:21;100317.23;;;5.72;59.12
34241;BME280;20503;50.200;19.508;2023-10-19T02:56:27;100312.05;;;5.81;59.05
34241;BME280;20503;50.200;19.508;2023-10-19T02:57:32;100319.27;;;5.68;60.88
34241;BME280;20503;50.200;19.508;2023-10-19T02:58:34;100301.24;;;5.70;63.16
34241;BME280;20503;50.200;19.508;2023-10-19T02:59:38;100296.82;;;5.82;62.70
34241;BME280;20503;50.200;19.508;2023-10-19T03:00:41;100292.73;;;6.02;62.61
34241;BME280;20503;50.200;19.508;2023-10-19T03:01:44;100289.74;;;6.30;60.30
34241;BME280;20503;50.200;19.508;2023-10-19T03:02:50;100293.12;;;6.45;60.12
34241;BME280;20503;50.200;19.508;2023-10-19T03:04:06;100290.98;;;6.85;57.99
34241;BME280;20503;50.200;19.508;2023-10-19T03:05:10;100289.06;;;6.99;56.47
34241;BME280;20503;50.200;19.508;2023-10-19T03:06:47;100291.25;;;6.93;56.17
34241;BME280;20503;50.200;19.508;2023-10-19T03:07:54;100280.74;;;6.90;55.87
34241;BME280;20503;50.200;19.508;2023-10-19T03:09:03;100296.59;;;6.34;56.31
34241;BME280;20503;50.200;19.508;2023-10-19T03:10:20;100279.35;;;6.26;56.66
34241;BME280;20503;50.200;19.508;2023-10-19T03:11:32;100277.31;;;6.29;56.84
34241;BME280;20503;50.200;19.508;2023-10-19T03:12:37;100276.85;;;6.11;57.63
34241;BME280;20503;50.200;19.508;2023-10-19T03:13:42;100277.28;;;6.05;57.57
34241;BME280;20503;50.200;19.508;2023-10-19T03:14:46;100273.23;;;6.00;59.71
34241;BME280;20503;50.200;19.508;2023-10-19T03:15:51;100269.27;;;5.92;59.88
34241;BME280;20503;50.200;19.508;2023-10-19T03:17:14;100272.17;;;5.77;60.34
34241;BME280;20503;50.200;19.508;2023-10-19T03:18:17;100266.77;;;5.89;61.59
34241;BME280;20503;50.200;19.508;2023-10-19T03:19:23;100264.72;;;6.06;60.41
34241;BME280;20503;50.200;19.508;2023-10-19T03:20:29;100257.44;;;6.08;60.27
34241;BME280;20503;50.200;19.508;2023-10-19T03:21:36;100259.67;;;6.38;59.78
34241;BME280;20503;50.200;19.508;2023-10-19T03:22:47;100248.23;;;6.47;59.31
34241;BME280;20503;50.200;19.508;2023-10-19T03:23:50;100252.44;;;6.62;59.10
34241;BME280;20503;50.200;19.508;2023-10-19T03:24:53;100246.63;;;6.68;58.00
34241;BME280;20503;50.200;19.508;2023-10-19T03:26:06;100250.91;;;5.86;60.27
34241;BME280;20503;50.200;19.508;2023-10-19T03:27:19;100240.50;;;6.31;59.74
34241;BME280;20503;50.200;19.508;2023-10-19T03:28:24;100241.79;;;6.50;58.77
34241;BME280;20503;50.200;19.508;2023-10-19T03:29:28;100236.06;;;6.54;58.26
34241;BME280;20503;50.200;19.508;2023-10-19T03:30:40;100246.46;;;6.11;59.26
34241;BME280;20503;50.200;19.508;2023-10-19T03:31:44;100237.40;;;6.01;59.58
34241;BME280;20503;50.200;19.508;2023-10-19T03:32:58;100241.78;;;6.02;60.05
34241;BME280;20503;50.200;19.508;2023-10-19T03:34:10;100241.45;;;6.06;59.93
34241;BME280;20503;50.200;19.508;2023-10-19T03:35:14;100234.66;;;6.37;58.98
34241;BME280;20503;50.200;19.508;2023-10-19T03:36:17;100225.55;;;6.51;58.87
34241;BME280;20503;50.200;19.508;2023-10-19T03:37:20;100221.66;;;6.20;58.76
34241;BME280;20503;50.200;19.508;2023-10-19T03:38:26;100217.55;;;6.27;59.09
34241;BME280;20503;50.200;19.508;2023-10-19T03:39:40;100221.52;;;6.46;59.78
34241;BME280;20503;50.200;19.508;2023-10-19T03:40:44;100217.67;;;6.61;58.64
34241;BME280;20503;50.200;19.508;2023-10-19T03:41:55;100218.76;;;6.58;58.94
34241;BME280;20503;50.200;19.508;2023-10-19T03:42:59;100221.61;;;6.68;58.24
34241;BME280;20503;50.200;19.508;2023-10-19T03:44:11;100218.61;;;6.84;58.16
34241;BME280;20503;50.200;19.508;2023-10-19T03:45:25;100223.75;;;6.98;58.54
34241;BME280;20503;50.200;19.508;2023-10-19T03:46:33;100223.88;;;6.97;58.07
34241;BME280;20503;50.200;19.508;2023-10-19T03:47:42;100218.48;;;6.85;58.31
34241;BME280;20503;50.200;19.508;2023-10-19T03:48:50;100220.27;;;6.74;59.13
34241;BME280;20503;50.200;19.508;2023-10-19T03:49:53;100220.19;;;6.86;59.24
34241;BME280;20503;50.200;19.508;2023-10-19T03:51:13;100217.78;;;7.06;59.08
34241;BME280;20503;50.200;19.508;2023-10-19T03:52:17;100208.91;;;7.28;59.44
34241;BME280;20503;50.200;19.508;2023-10-19T03:53:23;100206.95;;;7.52;58.68
34241;BME280;20503;50.200;19.508;2023-10-19T03:54:28;100206.44;;;7.70;57.60
34241;BME280;20503;50.200;19.508;2023-10-19T03:55:36;100206.80;;;7.76;58.00
34241;BME280;20503;50.200;19.508;2023-10-19T03:56:39;100194.60;;;7.61;56.76
34241;BME280;20503;50.200;19.508;2023-10-19T03:57:44;100192.77;;;7.61;57.51
34241;BME280;20503;50.200;19.508;2023-10-19T03:59:05;100196.08;;;7.20;59.12
34241;BME280;20503;50.200;19.508;2023-10-19T04:00:15;100199.47;;;7.11;59.31
34241;BME280;20503;50.200;19.508;2023-10-19T04:01:25;100192.27;;;7.00;59.51
34241;BME280;20503;50.200;19.508;2023-10-19T04:02:29;100184.10;;;7.13;59.86
34241;BME280;20503;50.200;19.508;2023-10-19T04:03:40;100192.15;;;7.58;60.08
34241;BME280;20503;50.200;19.508;2023-10-19T04:04:45;100182.83;;;7.84;58.45
34241;BME280;20503;50.200;19.508;2023-10-19T04:05:51;100190.60;;;7.99;57.94
34241;BME280;20503;50.200;19.508;2023-10-19T04:06:54;100187.83;;;7.89;57.57
34241;BME280;20503;50.200;19.508;2023-10-19T04:08:00;100193.19;;;8.00;57.46
34241;BME280;20503;50.200;19.508;2023-10-19T04:09:12;100195.50;;;8.05;58.31
34241;BME280;20503;50.200;19.508;2023-10-19T04:10:22;100198.51;;;8.11;56.99
34241;BME280;20503;50.200;19.508;2023-10-19T04:11:36;100200.30;;;7.79;57.15
34241;BME280;20503;50.200;19.508;2023-10-19T04:12:52;100197.51;;;7.80;56.53
34241;BME280;20503;50.200;19.508;2023-10-19T04:13:57;100194.22;;;7.65;57.05
34241;BME280;20503;50.200;19.508;2023-10-19T04:15:06;100195.21;;;7.64;58.96
34241;BME280;20503;50.200;19.508;2023-10-19T04:16:19;100189.09;;;7.62;58.04
34241;BME280;20503;50.200;19.508;2023-10-19T04:17:22;100190.22;;;7.60;57.74
34241;BME280;20503;50.200;19.508;2023-10-19T04:18:28;100185.92;;;7.69;57.93
34241;BME280;20503;50.200;19.508;2023-10-19T04:19:30;100181.72;;;7.76;58.79
34241;BME280;20503;50.200;19.508;2023-10-19T04:20:33;100179.76;;;7.89;57.52
34241;BME280;20503;50.200;19.508;2023-10-19T04:21:48;100171.77;;;7.99;56.82
34241;BME280;20503;50.200;19.508;2023-10-19T04:22:54;100187.68;;;8.34;57.53
34241;BME280;20503;50.200;19.508;2023-10-19T04:24:00;100180.95;;;8.39;56.87
34241;BME280;20503;50.200;19.508;2023-10-19T04:25:03;100180.05;;;8.50;56.80
34241;BME280;20503;50.200;19.508;2023-10-19T04:26:07;100177.55;;;8.37;56.94
34241;BME280;20503;50.200;19.508;2023-10-19T04:27:20;100171.07;;;8.61;55.98
34241;BME280;20503;50.200;19.508;2023-10-19T04:28:25;100170.27;;;8.70;56.75
34241;BME280;20503;50.200;19.508;2023-10-19T04:29:39;100171.87;;;8.73;55.86
34241;BME280;20503;50.200;19.508;2023-10-19T04:30:46;100160.09;;;8.74;56.11
34241;BME280;20503;50.200;19.508;2023-10-19T04:31:50;100166.48;;;8.73;55.95
34241;BME280;20503;50.200;19.508;2023-10-19T04:32:57;100148.09;;;8.57;56.52
34241;BME280;20503;50.200;19.508;2023-10-19T04:34:01;100149.20;;;8.54;56.95
34241;BME280;20503;50.200;19.508;2023-10-19T04:35:11;100141.30;;;8.42;55.92
34241;BME280;20503;50.200;19.508;2023-10-19T04:36:34;100154.78;;;8.30;56.55
34241;BME280;20503;50.200;19.508;2023-10-19T04:37:39;100145.24;;;8.37;55.64
34241;BME280;20503;50.200;19.508;2023-10-19T04:38:44;100138.07;;;8.48;56.40
34241;BME280;20503;50.200;19.508;2023-10-19T04:39:47;100144.99;;;8.40;57.07
34241;BME280;20503;50.200;19.508;2023-10-19T04:40:52;100150.94;;;8.44;56.40
34241;BME280;20503;50.200;19.508;2023-10-19T04:42:03;100159.11;;;8.54;55.94
34241;BME280;20503;50.200;19.508;2023-10-19T04:43:08;100148.87;;;8.69;55.69
34241;BME280;20503;50.200;19.508;2023-10-19T04:44:12;100149.84;;;8.68;55.34
34241;BME280;20503;50.200;19.508;2023-10-19T04:45:17;100153.38;;;8.68;55.27
34241;BME280;20503;50.200;19.508;2023-10-19T04:46:18;100151.16;;;8.73;55.71
34241;BME280;20503;50.200;19.508;2023-10-19T04:47:21;100155.16;;;8.79;54.81
34241;BME280;20503;50.200;19.508;2023-10-19T04:48:24;100159.74;;;8.88;55.49
34241;BME280;20503;50.200;19.508;2023-10-19T04:49:26;100151.16;;;8.73;55.59
34241;BME280;20503;50.200;19.508;2023-10-19T04:50:31;100151.23;;;8.62;55.60
34241;BME280;20503;50.200;19.508;2023-10-19T04:51:36;100150.23;;;8.63;55.88
34241;BME280;20503;50.200;19.508;2023-10-19T04:52:41;100156.95;;;8.69;55.14
34241;BME280;20503;50.200;19.508;2023-10-19T04:53:44;100147.08;;;8.79;55.49
34241;BME280;20503;50.200;19.508;2023-10-19T04:54:45;100136.27;;;9.00;54.62
34241;BME280;20503;50.200;19.508;2023-10-19T04:55:48;100143.95;;;9.04;54.20
34241;BME280;20503;50.200;19.508;2023-10-19T04:56:51;100137.77;;;9.13;54.70
34241;BME280;20503;50.200;19.508;2023-10-19T04:57:57;100142.02;;;9.16;53.96
34241;BME280;20503;50.200;19.508;2023-10-19T04:59:18;100139.64;;;9.23;54.42
34241;BME280;20503;50.200;19.508;2023-10-19T05:00:22;100136.09;;;9.22;53.23
34241;BME280;20503;50.200;19.508;2023-10-19T05:01:29;100133.23;;;9.14;52.16
34241;BME280;20503;50.200;19.508;2023-10-19T05:02:34;100134.99;;;9.25;54.05
34241;BME280;20503;50.200;19.508;2023-10-19T05:03:39;100137.37;;;9.18;52.62
34241;BME280;20503;50.200;19.508;2023-10-19T05:05:02;100140.59;;;9.12;52.87
34241;BME280;20503;50.200;19.508;2023-10-19T05:06:08;100129.80;;;8.81;51.58
34241;BME280;20503;50.200;19.508;2023-10-19T05:07:14;100131.38;;;8.42;53.49
34241;BME280;20503;50.200;19.508;2023-10-19T05:08:19;100133.17;;;8.53;53.59
34241;BME280;20503;50.200;19.508;2023-10-19T05:09:25;100134.05;;;9.05;52.24
34241;BME280;20503;50.200;19.508;2023-10-19T05:10:29;100136.48;;;8.87;51.74
34241;BME280;20503;50.200;19.508;2023-10-19T05:11:32;100127.33;;;8.99;51.11
34241;BME280;20503;50.200;19.508;2023-10-19T05:12:34;100130.21;;;9.07;51.21
34241;BME280;20503;50.200;19.508;2023-10-19T05:13:37;100126.92;;;9.34;50.14
34241;BME280;20503;50.200;19.508;2023-10-19T05:14:42;100123.54;;;9.42;49.53
34241;BME280;20503;50.200;19.508;2023-10-19T05:15:46;100126.00;;;9.55;48.94
34241;BME280;20503;50.200;19.508;2023-10-19T05:16:49;100123.64;;;9.31;49.80
34241;BME280;20503;50.200;19.508;2023-10-19T05:17:53;100120.77;;;9.23;50.21
34241;BME280;20503;50.200;19.508;2023-10-19T05:18:58;100115.86;;;8.76;50.70
34241;BME280;20503;50.200;19.508;2023-10-19T05:20:07;100121.84;;;9.01;50.74
34241;BME280;20503;50.200;19.508;2023-10-19T05:21:15;100109.25;;;9.11;50.23
34241;BME280;20503;50.200;19.508;2023-10-19T05:22:18;100112.55;;;9.24;50.48
34241;BME280;20503;50.200;19.508;2023-10-19T05:23:26;100102.55;;;9.46;48.83
34241;BME280;20503;50.200;19.508;2023-10-19T05:24:32;100112.28;;;9.27;49.94
34241;BME280;20503;50.200;19.508;2023-10-19T05:25:34;100096.59;;;9.52;49.19
34241;BME280;20503;50.200;19.508;2023-10-19T05:26:38;100107.00;;;9.66;48.50
34241;BME280;20503;50.200;19.508;2023-10-19T05:27:40;100100.61;;;9.67;48.32
34241;BME280;20503;50.200;19.508;2023-10-19T05:29:05;100114.28;;;9.95;48.71
34241;BME280;20503;50.200;19.508;2023-10-19T05:30:09;100111.01;;;10.01;48.01
34241;BME280;20503;50.200;19.508;2023-10-19T05:31:12;100112.73;;;10.11;49.31
34241;BME280;20503;50.200;19.508;2023-10-19T05:32:15;100098.48;;;9.80;48.33
34241;BME280;20503;50.200;19.508;2023-10-19T05:33:20;100102.77;;;9.73;48.33
34241;BME280;20503;50.200;19.508;2023-10-19T05:34:25;100103.57;;;9.54;48.12
34241;BME280;20503;50.200;19.508;2023-10-19T05:35:33;100101.41;;;9.48;47.90
34241;BME280;20503;50.200;19.508;2023-10-19T05:37:02;100110.59;;;9.36;48.86
34241;BME280;20503;50.200;19.508;2023-10-19T05:38:09;100092.20;;;9.60;48.98
34241;BME280;20503;50.200;19.508;2023-10-19T05:39:13;100088.54;;;9.61;48.56
34241;BME280;20503;50.200;19.508;2023-10-19T05:40:31;100099.03;;;9.55;48.76
34241;BME280;20503;50.200;19.508;2023-10-19T05:41:37;100083.88;;;9.93;47.96
34241;BME280;20503;50.200;19.508;2023-10-19T05:42:43;100084.59;;;9.95;47.78
34241;BME280;20503;50.200;19.508;2023-10-19T05:43:48;100082.75;;;9.85;47.99
34241;BME280;20503;50.200;19.508;2023-10-19T05:44:52;100089.70;;;9.88;49.45
34241;BME280;20503;50.200;19.508;2023-10-19T05:45:55;100084.03;;;9.81;49.94
34241;BME280;20503;50.200;19.508;2023-10-19T05:46:58;100078.78;;;9.89;48.38
34241;BME280;20503;50.200;19.508;2023-10-19T05:47:59;100078.06;;;10.07;48.33
34241;BME280;20503;50.200;19.508;2023-10-19T05:49:02;100074.52;;;10.06;48.13
34241;BME280;20503;50.200;19.508;2023-10-19T05:50:09;100074.93;;;10.11;48.02
34241;BME280;20503;50.200;19.508;2023-10-19T05:51:15;100068.68;;;10.11;48.23
34241;BME280;20503;50.200;19.508;2023-10-19T05:52:24;100075.39;;;10.26;48.19
34241;BME280;20503;50.200;19.508;2023-10-19T05:53:28;100067.27;;;10.07;48.05
34241;BME280;20503;50.200;19.508;2023-10-19T05:54:33;100073.63;;;9.67;48.74
34241;BME280;20503;50.200;19.508;2023-10-19T05:55:38;100073.37;;;9.99;48.48
34241;BME280;20503;50.200;19.508;2023-10-19T05:56:41;100076.08;;;9.89;48.90